Time;durP1;ratioP1;P1;durP2;ratioP2;P2;SDS_P1;SDS_P2;PMS_P1;PMS_P2;Temp;Humidity;BMP_temperature;BMP_pressure;BME280_temperature;BME280_humidity;BME280_pressure;Samples;Min_cycle;Max_cycle;Signal;HPM_P1;HPM_P2
2022/02/24 00:00:11;;;;;;;6.68;4.00;;;0.90;99.90;;;;;;5050272;28;20045;-71
2022/02/24 00:02:44;;;;;;;9.27;4.68;;;0.80;99.90;;;;;;5050972;28;20036;-71
2022/02/24 00:05:16;;;;;;;7.93;4.85;;;0.80;99.90;;;;;;5050142;28;20053;-72
2022/02/24 00:07:48;;;;;;;5.68;4.00;;;0.70;99.90;;;;;;5051348;28;20041;-71
2022/02/24 00:10:20;;;;;;;6.13;4.75;;;0.70;99.90;;;;;;5051621;28;20128;-71
2022/02/24 00:12:53;;;;;;;6.75;4.47;;;0.70;99.90;;;;;;5065533;28;20041;-71
2022/02/24 00:15:21;;;;;;;6.15;3.80;;;0.80;99.90;;;;;;5050987;28;20068;-71
2022/02/24 00:17:53;;;;;;;7.82;4.43;;;0.80;99.90;;;;;;5051189;28;20488;-72
2022/02/24 00:20:25;;;;;;;6.47;3.78;;;0.80;99.90;;;;;;5051237;28;20041;-71
2022/02/24 00:22:52;;;;;;;7.13;3.97;;;0.80;99.90;;;;;;5049325;28;20478;-71
2022/02/24 00:25:19;;;;;;;8.20;4.32;;;0.70;99.90;;;;;;5049847;28;20076;-71
2022/02/24 00:27:46;;;;;;;7.93;3.70;;;0.70;99.90;;;;;;5049665;28;20068;-71
2022/02/24 00:30:20;;;;;;;10.15;4.50;;;0.80;99.90;;;;;;5049817;28;20055;-72
2022/02/24 00:32:46;;;;;;;8.32;3.85;;;0.80;99.90;;;;;;5050420;28;20131;-71
2022/02/24 00:35:13;;;;;;;6.78;4.22;;;0.80;99.90;;;;;;5054703;28;20051;-71
2022/02/24 00:37:47;;;;;;;11.68;4.82;;;0.70;99.90;;;;;;5065885;28;20048;-72
2022/02/24 00:40:19;;;;;;;7.22;3.83;;;0.60;99.90;;;;;;5065461;28;20116;-71
2022/02/24 00:42:50;;;;;;;8.40;4.75;;;0.50;99.90;;;;;;5049593;28;20045;-71
2022/02/24 00:45:22;;;;;;;8.63;4.60;;;0.50;99.90;;;;;;5050692;28;20567;-70
2022/02/24 00:47:51;;;;;;;8.55;4.10;;;0.50;99.90;;;;;;5049237;28;20077;-72
2022/02/24 00:50:22;;;;;;;6.47;3.70;;;0.60;99.90;;;;;;5049335;28;20131;-71
2022/02/24 00:52:56;;;;;;;7.13;3.53;;;0.60;99.90;;;;;;5050739;28;20047;-71
2022/02/24 00:55:28;;;;;;;;;;;0.70;99.90;;;;;;5053505;28;20428;-71
2022/02/24 00:58:00;;;;;;;8.48;4.22;;;0.70;99.90;;;;;;5069522;28;20015;-71
2022/02/24 01:00:32;;;;;;;7.80;4.15;;;0.70;99.90;;;;;;5070747;28;20041;-71
2022/02/24 01:03:04;;;;;;;9.27;4.07;;;0.70;99.90;;;;;;5070270;28;20036;-71
2022/02/24 01:05:38;;;;;;;6.03;4.32;;;0.70;99.90;;;;;;5069255;28;20060;-71
2022/02/24 01:08:09;;;;;;;12.05;4.63;;;0.70;99.90;;;;;;5053325;28;20495;-71
2022/02/24 01:10:44;;;;;;;8.15;3.78;;;0.70;99.90;;;;;;5064764;28;20560;-71
2022/02/24 01:13:10;;;;;;;7.82;4.43;;;0.70;99.90;;;;;;5085050;28;20350;-71
2022/02/24 01:15:44;;;;;;;11.23;4.22;;;0.70;99.90;;;;;;5070559;28;20564;-71
2022/02/24 01:18:15;;;;;;;8.00;3.55;;;0.60;99.90;;;;;;5069056;28;20045;-71
2022/02/24 01:20:47;;;;;;;9.50;4.55;;;0.60;99.90;;;;;;5053268;28;20499;-73
2022/02/24 01:23:21;;;;;;;5.22;3.90;;;0.60;99.90;;;;;;5069912;28;20045;-71
2022/02/24 01:25:49;;;;;;;7.07;3.80;;;0.60;99.90;;;;;;5071128;28;20086;-71
2022/02/24 01:28:21;;;;;;;8.07;4.18;;;0.60;99.90;;;;;;5072969;28;20113;-71
2022/02/24 01:30:47;;;;;;;9.95;4.40;;;0.60;99.90;;;;;;5072390;28;20056;-71
2022/02/24 01:33:19;;;;;;;5.57;3.83;;;0.50;99.90;;;;;;5074128;28;20464;-71
2022/02/24 01:35:51;;;;;;;6.28;3.97;;;0.50;99.90;;;;;;5074367;28;20040;-71
2022/02/24 01:38:25;;;;;;;8.70;4.00;;;0.50;99.90;;;;;;5074324;28;20060;-71
2022/02/24 01:40:52;;;;;;;9.18;4.70;;;0.40;99.90;;;;;;5074360;28;20029;-70
2022/02/24 01:43:19;;;;;;;10.15;5.00;;;0.40;99.90;;;;;;5073546;28;20055;-72
2022/02/24 01:45:51;;;;;;;8.05;4.13;;;0.40;99.90;;;;;;5072979;28;20041;-71
2022/02/24 01:48:22;;;;;;;6.72;4.35;;;0.40;99.90;;;;;;5089753;28;20045;-71
2022/02/24 01:50:55;;;;;;;6.32;4.03;;;0.40;99.90;;;;;;5074167;28;20131;-71
2022/02/24 01:53:26;;;;;;;7.10;4.32;;;0.40;99.90;;;;;;5073461;28;20570;-71
2022/02/24 01:56:02;;;;;;;7.95;4.35;;;0.40;99.90;;;;;;5073946;28;20118;-71
2022/02/24 01:58:29;;;;;;;7.95;4.20;;;0.30;99.90;;;;;;5072474;28;20067;-71
2022/02/24 02:01:02;;;;;;;6.35;4.55;;;0.30;99.90;;;;;;5073813;28;20120;-71
2022/02/24 02:03:34;;;;;;;8.88;4.53;;;0.40;99.90;;;;;;5072068;28;20139;-71
2022/02/24 02:06:06;;;;;;;9.52;4.53;;;0.40;99.90;;;;;;5073826;28;20054;-70
2022/02/24 02:08:34;;;;;;;7.38;3.92;;;0.40;99.90;;;;;;5072436;28;20087;-71
2022/02/24 02:11:01;;;;;;;11.45;4.63;;;0.40;99.90;;;;;;5073622;28;20044;-70
2022/02/24 02:13:34;;;;;;;10.25;4.88;;;0.40;99.90;;;;;;5073006;28;20122;-72
2022/02/24 02:16:07;;;;;;;7.38;4.97;;;0.40;99.90;;;;;;5088631;28;20090;-71
2022/02/24 02:18:39;;;;;;;8.07;5.27;;;0.40;99.90;;;;;;5089174;28;20040;-70
2022/02/24 02:21:12;;;;;;;7.85;5.10;;;0.40;99.90;;;;;;5073501;28;20131;-71
2022/02/24 02:23:46;;;;;;;10.50;5.28;;;0.40;99.90;;;;;;5088407;28;20060;-71
2022/02/24 02:26:18;;;;;;;8.38;4.72;;;0.40;99.90;;;;;;5088261;28;20140;-70
2022/02/24 02:28:51;;;;;;;9.10;5.03;;;0.40;99.90;;;;;;5072060;28;20036;-71
2022/02/24 02:31:21;;;;;;;9.13;5.25;;;0.40;99.90;;;;;;5072048;28;20076;-70
2022/02/24 02:33:47;;;;;;;8.15;4.57;;;0.30;99.90;;;;;;5072599;28;20083;-71
2022/02/24 02:36:15;;;;;;;10.02;5.28;;;0.30;99.90;;;;;;5073189;28;20047;-71
2022/02/24 02:38:47;;;;;;;10.20;5.18;;;0.30;99.90;;;;;;5072030;28;20131;-71
2022/02/24 02:41:19;;;;;;;8.05;5.65;;;0.30;99.90;;;;;;5088180;28;20159;-71
2022/02/24 02:43:50;;;;;;;9.52;5.90;;;0.20;99.90;;;;;;5071230;28;20076;-71
2022/02/24 02:46:22;;;;;;;10.25;4.90;;;0.20;99.90;;;;;;5073238;28;20048;-71
2022/02/24 02:48:54;;;;;;;9.95;6.03;;;0.20;99.90;;;;;;5073532;28;20068;-72
2022/02/24 02:51:26;;;;;;;7.10;4.45;;;0.20;99.90;;;;;;5072172;28;20147;-72
2022/02/24 02:53:58;;;;;;;8.55;4.25;;;0.10;99.90;;;;;;5087618;28;20116;-72
2022/02/24 02:56:25;;;;;;;9.32;4.97;;;0.10;99.90;;;;;;5072010;28;20518;-71
2022/02/24 02:58:58;;;;;;;6.53;4.43;;;0.10;99.90;;;;;;5071970;28;20127;-71
2022/02/24 03:01:32;;;;;;;7.72;4.30;;;0.10;99.90;;;;;;5073290;28;20071;-70
2022/02/24 03:04:04;;;;;;;6.30;3.72;;;0.10;99.90;;;;;;5072746;28;20058;-71
2022/02/24 03:06:36;;;;;;;7.93;4.15;;;0.10;99.90;;;;;;5073121;28;20072;-71
2022/02/24 03:09:08;;;;;;;8.07;4.55;;;0.10;99.90;;;;;;5088707;28;20421;-71
2022/02/24 03:11:36;;;;;;;8.55;4.45;;;0.10;99.90;;;;;;5073054;28;20526;-71
2022/02/24 03:14:03;;;;;;;5.78;4.45;;;0.10;99.90;;;;;;5072493;28;20154;-71
2022/02/24 03:16:34;;;;;;;8.60;3.85;;;0.10;99.90;;;;;;5071660;28;20037;-71
2022/02/24 03:19:08;;;;;;;5.88;4.00;;;0.10;99.90;;;;;;5071685;28;20135;-72
2022/02/24 03:21:41;;;;;;;9.27;4.93;;;0.10;99.90;;;;;;5088410;28;20040;-71
2022/02/24 03:24:14;;;;;;;;;;;0.10;99.90;;;;;;5072708;28;20047;-72
2022/02/24 03:26:48;;;;;;;7.13;3.80;;;0.10;99.90;;;;;;5072634;28;19960;-71
2022/02/24 03:29:16;;;;;;;6.22;3.88;;;0.00;99.90;;;;;;5071305;28;20044;-71
2022/02/24 03:31:47;;;;;;;6.95;4.05;;;0.00;99.90;;;;;;5071609;28;20127;-72
2022/02/24 03:34:19;;;;;;;7.65;3.75;;;0.00;99.90;;;;;;5072167;28;20538;-70
2022/02/24 03:36:51;;;;;;;9.23;4.05;;;0.00;99.90;;;;;;5072622;28;20123;-71
2022/02/24 03:39:23;;;;;;;6.45;3.90;;;0.00;99.90;;;;;;5072581;28;20124;-71
2022/02/24 03:41:56;;;;;;;9.07;4.43;;;0.00;99.90;;;;;;5072391;28;20049;-70
2022/02/24 03:44:23;;;;;;;10.63;4.95;;;0.00;99.90;;;;;;5087507;28;20090;-71
2022/02/24 03:46:51;;;;;;;7.35;4.15;;;0.00;99.90;;;;;;5087904;28;20475;-72
2022/02/24 03:49:22;;;;;;;4.32;3.60;;;0.00;99.90;;;;;;5087360;28;20476;-72
2022/02/24 03:51:54;;;;;;;5.93;4.10;;;0.00;99.90;;;;;;5071002;28;20068;-71
2022/02/24 03:54:26;;;;;;;6.88;3.83;;;0.00;99.90;;;;;;5071501;28;20117;-71
2022/02/24 03:56:57;;;;;;;5.97;4.05;;;0.00;99.90;;;;;;5087122;28;20128;-71
2022/02/24 03:59:30;;;;;;;7.15;3.72;;;0.00;99.90;;;;;;5070872;28;20033;-71
2022/02/24 04:02:03;;;;;;;6.30;3.80;;;0.00;99.90;;;;;;5070712;28;20143;-71
2022/02/24 04:04:36;;;;;;;7.80;5.00;;;0.00;99.90;;;;;;5071604;28;20048;-71
2022/02/24 04:07:08;;;;;;;7.63;4.03;;;-0.10;99.90;;;;;;5070803;28;20062;-71
2022/02/24 04:09:40;;;;;;;6.55;4.03;;;-0.10;99.90;;;;;;5071874;28;20472;-71
2022/02/24 04:12:15;;;;;;;5.47;3.80;;;-0.10;99.90;;;;;;5071852;28;20068;-71
2022/02/24 04:14:47;;;;;;;5.70;3.78;;;-0.10;99.90;;;;;;5070328;28;20036;-71
2022/02/24 04:17:14;;;;;;;5.53;3.90;;;-0.10;99.90;;;;;;5070388;28;20475;-71
2022/02/24 04:19:47;;;;;;;6.55;4.43;;;-0.20;99.90;;;;;;5087467;28;20101;-71
2022/02/24 04:22:19;;;;;;;7.57;3.97;;;-0.20;99.90;;;;;;5086396;28;20123;-72
2022/02/24 04:24:51;;;;;;;7.70;4.45;;;-0.10;99.90;;;;;;5071629;28;20076;-71
2022/02/24 04:27:17;;;;;;;7.55;5.50;;;-0.10;99.90;;;;;;5053690;28;20099;-72
2022/02/24 04:29:44;;;;;;;8.45;4.75;;;-0.10;99.90;;;;;;5071428;28;20094;-71
2022/02/24 04:32:16;;;;;;;6.32;4.60;;;-0.10;99.90;;;;;;5069997;28;20434;-72
2022/02/24 04:34:48;;;;;;;7.15;5.30;;;-0.10;99.90;;;;;;5071331;28;20070;-72
2022/02/24 04:37:15;;;;;;;6.47;4.00;;;-0.10;99.90;;;;;;5070132;28;20044;-71
2022/02/24 04:39:46;;;;;;;7.22;4.75;;;-0.20;99.90;;;;;;5070195;28;20453;-72
2022/02/24 04:42:18;;;;;;;8.15;4.68;;;-0.20;99.90;;;;;;5069994;28;20234;-71
2022/02/24 04:44:46;;;;;;;9.75;4.60;;;-0.20;99.90;;;;;;5071110;28;20048;-71
2022/02/24 04:47:18;;;;;;;8.35;4.57;;;-0.20;99.90;;;;;;5087016;28;20137;-71
2022/02/24 04:49:50;;;;;;;9.35;5.07;;;-0.20;99.90;;;;;;5069854;28;20071;-71
2022/02/24 04:52:21;;;;;;;9.00;4.65;;;-0.20;99.90;;;;;;5069383;28;20045;-71
2022/02/24 04:54:53;;;;;;;6.82;4.95;;;-0.20;99.90;;;;;;5069419;28;20033;-71
2022/02/24 04:57:26;;;;;;;6.45;4.43;;;-0.20;99.90;;;;;;5070712;28;20453;-71
2022/02/24 04:59:58;;;;;;;10.00;5.43;;;-0.20;99.90;;;;;;5068895;28;20048;-72
2022/02/24 05:02:33;;;;;;;8.88;5.18;;;-0.20;99.90;;;;;;5069987;28;20128;-71
2022/02/24 05:05:05;;;;;;;6.80;4.45;;;-0.20;99.90;;;;;;5053662;28;20045;-71
2022/02/24 05:07:32;;;;;;;7.80;4.38;;;-0.30;99.90;;;;;;5049974;28;20072;-70
2022/02/24 05:10:05;;;;;;;7.88;4.90;;;-0.30;99.90;;;;;;5049023;28;20114;-70
2022/02/24 05:12:37;;;;;;;11.40;5.20;;;-0.30;99.90;;;;;;5048223;28;20094;-72
2022/02/24 05:15:05;;;;;;;14.48;5.88;;;-0.30;99.90;;;;;;5047933;28;20055;-72
2022/02/24 05:17:39;;;;;;;15.93;5.53;;;-0.30;99.90;;;;;;5043619;28;20091;-69
2022/02/24 05:20:08;;;;;;;11.65;6.07;;;-0.30;99.90;;;;;;5056566;28;20041;-71
2022/02/24 05:22:43;;;;;;;15.60;6.28;;;-0.30;99.90;;;;;;5069219;28;20033;-71
2022/02/24 05:25:15;;;;;;;10.02;5.22;;;-0.30;99.90;;;;;;5075253;28;20045;-71
2022/02/24 05:27:44;;;;;;;10.25;6.95;;;-0.30;99.90;;;;;;5048612;28;20053;-71
2022/02/24 05:30:16;;;;;;;;;;;-0.40;99.90;;;;;;5065081;28;20094;-71
2022/02/24 05:32:43;;;;;;;10.95;5.60;;;-0.40;99.90;;;;;;5048418;28;19931;-71
2022/02/24 05:35:16;;;;;;;16.85;7.38;;;-0.40;99.90;;;;;;5050508;28;20112;-71
2022/02/24 05:37:51;;;;;;;22.23;9.98;;;-0.40;99.90;;;;;;5059054;28;20344;-71
2022/02/24 05:40:24;;;;;;;16.25;8.45;;;-0.40;99.90;;;;;;5052066;28;20045;-71
2022/02/24 05:42:52;;;;;;;15.15;9.32;;;-0.40;99.90;;;;;;5044387;28;20458;-72
2022/02/24 05:45:27;;;;;;;19.00;10.65;;;-0.40;99.90;;;;;;5029256;28;20116;-71
2022/02/24 05:47:53;;;;;;;22.35;12.18;;;-0.40;99.90;;;;;;5030817;28;20041;-71
2022/02/24 05:50:20;;;;;;;27.38;14.18;;;-0.40;99.90;;;;;;5034557;28;20052;-71
2022/02/24 05:52:53;;;;;;;36.53;18.30;;;-0.40;99.90;;;;;;5060242;28;20226;-71
2022/02/24 05:55:25;;;;;;;34.45;17.98;;;-0.40;99.90;;;;;;5068709;28;20496;-71
2022/02/24 05:57:53;;;;;;;40.42;19.13;;;-0.40;99.90;;;;;;5051137;28;20114;-71
2022/02/24 06:00:25;;;;;;;32.88;17.80;;;-0.30;99.90;;;;;;5069108;28;20040;-71
2022/02/24 06:02:53;;;;;;;31.83;17.33;;;-0.40;99.90;;;;;;5068449;28;20040;-71
2022/02/24 06:05:20;;;;;;;29.27;16.60;;;-0.40;99.90;;;;;;5069965;28;20045;-71
2022/02/24 06:07:53;;;;;;;30.88;15.25;;;-0.40;99.90;;;;;;5069375;28;20048;-71
2022/02/24 06:10:20;;;;;;;20.58;12.93;;;-0.40;99.90;;;;;;5069042;28;20829;-70
2022/02/24 06:12:57;;;;;;;19.45;10.85;;;-0.40;99.90;;;;;;5071700;28;20079;-70
2022/02/24 06:15:30;;;;;;;24.67;12.30;;;-0.40;99.90;;;;;;5073462;28;20414;-71
2022/02/24 06:18:22;;;;;;;20.00;11.02;;;-0.40;99.90;;;;;;5072384;28;20064;-71
2022/02/24 06:20:54;;;;;;;15.10;10.43;;;-0.40;99.90;;;;;;5057990;28;20068;-71
2022/02/24 06:23:26;;;;;;;18.15;10.60;;;-0.40;99.90;;;;;;5051559;28;20668;-71
2022/02/24 06:25:58;;;;;;;20.15;11.95;;;-0.30;99.90;;;;;;5052163;28;20045;-71
2022/02/24 06:28:30;;;;;;;17.65;10.05;;;-0.30;99.90;;;;;;5052113;28;20136;-72
2022/02/24 06:31:04;;;;;;;16.33;8.73;;;-0.30;99.90;;;;;;5053635;28;20060;-70
2022/02/24 06:33:36;;;;;;;15.25;6.22;;;-0.30;99.90;;;;;;5052996;28;20416;-71
2022/02/24 06:36:08;;;;;;;14.82;8.85;;;-0.30;99.90;;;;;;5048477;28;20511;-71
2022/02/24 06:38:40;;;;;;;12.90;7.93;;;-0.30;99.90;;;;;;5051763;28;20112;-71
2022/02/24 06:41:06;;;;;;;11.82;7.93;;;-0.20;99.90;;;;;;5041519;28;20068;-71
2022/02/24 06:43:33;;;;;;;11.48;7.72;;;-0.20;99.90;;;;;;5051186;28;20068;-71
2022/02/24 06:46:05;;;;;;;10.68;7.80;;;-0.10;99.90;;;;;;5051783;28;20135;-70
2022/02/24 06:48:32;;;;;;;13.15;7.45;;;-0.10;99.90;;;;;;5052759;28;20071;-71
2022/02/24 06:51:03;;;;;;;9.38;6.18;;;-0.10;99.90;;;;;;5051798;28;20075;-71
2022/02/24 06:53:35;;;;;;;9.90;7.40;;;0.00;99.90;;;;;;5050999;28;20075;-71
2022/02/24 06:56:03;;;;;;;12.00;7.50;;;0.00;99.90;;;;;;5051327;28;20132;-72
2022/02/24 06:58:37;;;;;;;16.75;9.30;;;0.00;99.90;;;;;;5052732;28;20132;-71
2022/02/24 07:01:09;;;;;;;16.90;10.43;;;0.10;99.90;;;;;;5047354;28;20045;-71
2022/02/24 07:03:42;;;;;;;12.68;9.27;;;0.10;99.90;;;;;;5049865;28;20145;-71
2022/02/24 07:06:10;;;;;;;17.40;10.15;;;0.10;99.90;;;;;;5046425;28;20082;-70
2022/02/24 07:08:38;;;;;;;19.35;8.90;;;0.20;99.90;;;;;;5049362;28;20115;-71
2022/02/24 07:11:09;;;;;;;16.17;8.88;;;0.30;99.90;;;;;;5049857;28;20103;-71
2022/02/24 07:13:41;;;;;;;19.35;9.55;;;0.50;99.90;;;;;;5037094;28;20128;-71
2022/02/24 07:16:13;;;;;;;16.50;9.48;;;0.60;99.90;;;;;;5031025;28;20690;-71
2022/02/24 07:18:48;;;;;;;13.25;10.25;;;0.60;99.90;;;;;;5038283;28;20127;-71
2022/02/24 07:21:22;;;;;;;16.20;10.13;;;0.70;99.90;;;;;;5054151;28;20063;-70
2022/02/24 07:23:54;;;;;;;15.30;9.65;;;0.70;99.90;;;;;;5033033;28;20122;-71
2022/02/24 07:26:26;;;;;;;20.00;12.82;;;0.70;99.90;;;;;;5054356;28;20048;-71
2022/02/24 07:28:59;;;;;;;17.30;12.10;;;0.70;99.90;;;;;;5049788;28;20049;-71
2022/02/24 07:31:30;;;;;;;13.65;9.10;;;0.70;99.90;;;;;;5050114;28;20655;-71
2022/02/24 07:34:04;;;;;;;13.17;8.67;;;0.70;99.90;;;;;;5047130;28;20041;-71
2022/02/24 07:36:39;;;;;;;;;;;0.80;99.90;;;;;;5049250;28;20037;-71
2022/02/24 07:39:10;;;;;;;14.10;10.27;;;0.90;99.90;;;;;;5034227;28;19920;-72
2022/02/24 07:41:38;;;;;;;13.23;10.07;;;0.90;99.90;;;;;;5051480;28;20049;-71
2022/02/24 07:44:14;;;;;;;23.40;13.70;;;0.90;99.90;;;;;;5049700;28;20033;-73
2022/02/24 07:46:41;;;;;;;28.38;18.40;;;0.90;99.90;;;;;;5048732;28;20377;-71
2022/02/24 07:49:13;;;;;;;25.92;19.80;;;0.90;99.90;;;;;;5047976;28;20132;-71
2022/02/24 07:51:46;;;;;;;13.20;10.82;;;0.90;99.90;;;;;;5051215;28;20128;-71
2022/02/24 07:54:14;;;;;;;12.48;9.90;;;0.90;99.90;;;;;;5049839;28;20420;-71
2022/02/24 07:56:46;;;;;;;14.85;10.10;;;0.90;99.90;;;;;;5044872;28;20033;-71
2022/02/24 07:59:20;;;;;;;12.70;8.95;;;1.00;99.90;;;;;;5049500;28;20037;-70
2022/02/24 08:01:52;;;;;;;11.55;6.97;;;1.00;99.90;;;;;;5047931;28;20042;-71
2022/02/24 08:04:24;;;;;;;13.93;10.30;;;1.10;99.90;;;;;;5050866;28;20045;-71
2022/02/24 08:06:58;;;;;;;;;;;1.20;99.90;;;;;;5067563;28;20432;-71
2022/02/24 08:09:32;;;;;;;13.00;8.50;;;1.30;99.90;;;;;;5050253;28;19920;-71
2022/02/24 08:14:53;;;;;;;13.68;9.32;;;1.40;99.90;;;;;;5049866;28;20136;-71
2022/02/24 08:17:26;;;;;;;10.93;8.45;;;1.50;99.90;;;;;;5049758;28;20499;-71
2022/02/24 08:19:59;;;;;;;15.70;10.05;;;1.50;99.90;;;;;;5051416;28;20124;-71
2022/02/24 08:22:27;;;;;;;13.10;7.65;;;1.60;99.90;;;;;;5029567;28;20080;-71
2022/02/24 08:25:02;;;;;;;10.70;7.47;;;1.70;99.90;;;;;;5030485;28;20045;-71
2022/02/24 08:27:35;;;;;;;14.02;8.52;;;1.80;99.90;;;;;;5038761;28;20041;-71
2022/02/24 08:30:11;;;;;;;14.70;8.25;;;1.80;99.90;;;;;;5049500;28;20041;-71
2022/02/24 08:32:45;;;;;;;11.38;8.60;;;2.00;99.90;;;;;;5046695;28;20216;-71
2022/02/24 08:35:19;;;;;;;;;;;2.10;99.90;;;;;;5034476;28;20132;-70
2022/02/24 08:37:52;;;;;;;13.93;8.07;;;2.20;99.90;;;;;;5047761;28;19931;-72
2022/02/24 08:40:26;;;;;;;11.02;7.13;;;2.20;99.90;;;;;;5048509;28;20037;-71
2022/02/24 08:43:01;;;;;;;12.77;8.20;;;2.30;99.90;;;;;;5047532;28;20522;-71
2022/02/24 08:45:37;;;;;;;10.00;7.10;;;2.40;99.90;;;;;;5050792;28;20052;-71
2022/02/24 08:48:09;;;;;;;10.82;8.02;;;2.50;99.90;;;;;;5066649;28;20457;-71
2022/02/24 08:50:43;;;;;;;16.48;8.57;;;2.60;99.90;;;;;;5051563;28;20056;-71
2022/02/24 08:53:12;;;;;;;10.75;7.85;;;2.70;99.90;;;;;;5050727;28;20461;-71
2022/02/24 08:55:44;;;;;;;10.80;7.17;;;2.80;99.90;;;;;;5033832;28;20651;-71
2022/02/24 08:58:16;;;;;;;19.38;8.57;;;3.00;99.90;;;;;;5050520;28;20460;-71
2022/02/24 09:00:49;;;;;;;10.35;7.13;;;3.10;99.90;;;;;;5048972;28;20049;-71
2022/02/24 09:03:19;;;;;;;13.70;9.02;;;3.30;99.90;;;;;;5046627;28;20601;-71
2022/02/24 09:05:51;;;;;;;18.90;10.43;;;3.40;99.90;;;;;;5049503;28;20131;-70
2022/02/24 09:08:23;;;;;;;13.30;9.32;;;3.50;99.90;;;;;;5050760;28;20076;-73
2022/02/24 09:10:57;;;;;;;;;;;3.60;99.90;;;;;;5048654;28;20712;-71
2022/02/24 09:13:23;;;;;;;15.57;7.95;;;3.80;99.90;;;;;;5049047;28;20434;-72
2022/02/24 09:16:00;;;;;;;20.52;10.15;;;3.90;99.90;;;;;;5049790;28;20051;-72
2022/02/24 09:18:32;;;;;;;17.83;10.32;;;4.00;99.90;;;;;;5050114;28;20115;-71
2022/02/24 09:20:59;;;;;;;18.35;9.50;;;4.10;99.90;;;;;;5048213;28;20045;-71
2022/02/24 09:23:31;;;;;;;14.15;9.20;;;4.20;99.90;;;;;;5040697;28;20056;-71
2022/02/24 09:26:05;;;;;;;16.77;8.23;;;4.40;99.90;;;;;;5065079;28;20062;-71
2022/02/24 09:28:34;;;;;;;13.65;8.52;;;4.50;99.90;;;;;;5046562;28;20033;-71
2022/02/24 09:31:07;;;;;;;12.57;7.35;;;4.60;99.90;;;;;;5057269;28;20507;-71
2022/02/24 09:33:35;;;;;;;13.30;8.30;;;4.80;99.90;;;;;;5048906;28;20072;-71
2022/02/24 09:36:08;;;;;;;9.45;7.32;;;4.90;99.90;;;;;;5049285;28;20040;-73
2022/02/24 09:38:35;;;;;;;14.00;8.60;;;5.10;99.90;;;;;;5046727;28;20029;-71
2022/02/24 09:41:10;;;;;;;12.10;8.30;;;5.30;99.90;;;;;;5049243;28;20048;-71
2022/02/24 09:43:44;;;;;;;12.20;8.43;;;5.40;99.90;;;;;;5050586;28;20068;-72
2022/02/24 09:46:17;;;;;;;12.65;7.32;;;5.60;99.90;;;;;;5049180;28;20049;-72
2022/02/24 09:48:45;;;;;;;7.40;5.22;;;5.80;99.90;;;;;;5054350;28;20115;-71
2022/02/24 09:51:20;;;;;;;8.38;5.90;;;6.00;99.90;;;;;;5053091;28;20129;-71
2022/02/24 09:53:51;;;;;;;7.32;5.60;;;6.20;99.90;;;;;;5053012;28;20132;-71
2022/02/24 09:56:29;;;;;;;4.13;2.65;;;6.50;99.90;;;;;;5053849;28;20055;-71
2022/02/24 09:59:00;;;;;;;7.55;3.63;;;6.90;99.90;;;;;;5051612;28;20048;-71
2022/02/24 10:01:28;;;;;;;4.35;3.10;;;7.30;99.90;;;;;;5051542;28;20140;-72
2022/02/24 10:04:01;;;;;;;3.45;2.25;;;7.60;99.90;;;;;;5032765;28;20098;-72
2022/02/24 10:06:41;;;;;;;3.10;1.85;;;8.00;99.90;;;;;;5043213;28;20094;-72
2022/02/24 10:09:11;;;;;;;5.43;1.98;;;8.20;99.90;;;;;;5052206;28;20048;-71
2022/02/24 10:11:42;;;;;;;3.05;2.33;;;8.40;99.90;;;;;;5049524;28;20077;-71
2022/02/24 10:14:20;;;;;;;3.78;2.40;;;8.50;99.90;;;;;;5043162;28;20037;-71
2022/02/24 10:16:59;;;;;;;4.78;2.00;;;8.70;99.90;;;;;;5052209;28;20415;-71
2022/02/24 10:19:43;;;;;;;3.20;2.15;;;8.90;99.90;;;;;;5053762;28;20056;-71
2022/02/24 10:22:13;;;;;;;3.22;2.10;;;9.00;99.90;;;;;;5064059;28;20049;-71
2022/02/24 10:24:44;;;;;;;4.10;2.10;;;9.10;99.90;;;;;;5052000;28;20458;-70
2022/02/24 10:27:22;;;;;;;2.47;1.77;;;9.30;99.90;;;;;;5052756;28;20044;-71
2022/02/24 10:30:07;;;;;;;4.45;2.05;;;9.40;99.90;;;;;;5057845;28;20094;-72
2022/02/24 10:33:00;;;;;;;2.75;1.73;;;9.50;99.90;;;;;;5068270;28;20099;-71
2022/02/24 10:35:35;;;;;;;3.38;1.98;;;9.60;99.90;;;;;;5065531;28;20041;-71
2022/02/24 10:38:13;;;;;;;3.15;1.33;;;9.80;99.90;;;;;;5047938;28;20112;-71
2022/02/24 10:40:48;;;;;;;3.50;1.35;;;9.80;99.90;;;;;;5048777;28;20037;-71
2022/02/24 10:43:33;;;;;;;5.53;1.55;;;10.00;99.90;;;;;;5050092;28;20045;-71
2022/02/24 10:46:13;;;;;;;4.07;1.52;;;10.10;99.90;;;;;;5049561;28;20123;-71
2022/02/24 10:48:55;;;;;;;2.55;1.77;;;10.20;99.90;;;;;;5051360;28;20049;-71
2022/02/24 10:51:32;;;;;;;2.22;1.80;;;10.30;99.90;;;;;;5053210;28;20048;-71
2022/02/24 10:54:05;;;;;;;2.00;1.77;;;10.40;99.90;;;;;;5051566;28;20424;-72
2022/02/24 10:56:41;;;;;;;3.08;1.85;;;10.50;99.90;;;;;;5053490;28;20121;-71
2022/02/24 10:59:31;;;;;;;7.38;2.40;;;10.60;99.90;;;;;;5050328;28;20136;-71
2022/02/24 11:01:58;;;;;;;4.38;2.83;;;10.80;99.90;;;;;;5035105;28;20091;-71
2022/02/24 11:04:26;;;;;;;5.53;2.20;;;10.90;99.90;;;;;;5062864;28;20135;-71
2022/02/24 11:06:55;;;;;;;3.63;1.90;;;10.90;99.90;;;;;;5053046;28;20041;-71
2022/02/24 11:09:28;;;;;;;3.25;1.50;;;11.00;99.90;;;;;;5051221;28;20044;-71
2022/02/24 11:12:05;;;;;;;2.97;1.42;;;11.00;99.90;;;;;;5051909;28;20080;-71
2022/02/24 11:14:40;;;;;;;3.45;1.73;;;11.10;99.90;;;;;;5050956;28;20128;-70
2022/02/24 11:17:14;;;;;;;3.15;1.40;;;11.30;99.90;;;;;;5052588;28;20140;-71
2022/02/24 11:19:49;;;;;;;3.63;1.60;;;11.30;99.90;;;;;;5051673;28;20041;-71
2022/02/24 11:22:22;;;;;;;;;;;11.50;99.90;;;;;;5052429;28;20063;-72
2022/02/24 11:24:56;;;;;;;2.10;1.50;;;11.50;99.90;;;;;;5053116;28;20453;-71
2022/02/24 11:27:49;;;;;;;3.85;1.30;;;11.50;99.90;;;;;;5052464;28;20124;-72
2022/02/24 11:30:31;;;;;;;4.35;1.30;;;11.60;99.90;;;;;;5051480;28;20128;-72
2022/02/24 11:33:03;;;;;;;2.58;1.80;;;11.70;99.90;;;;;;5051899;28;20049;-71
2022/02/24 11:35:36;;;;;;;2.47;1.50;;;11.70;99.90;;;;;;5052575;28;20086;-71
2022/02/24 11:38:06;;;;;;;3.88;1.50;;;11.80;99.90;;;;;;5052577;28;20595;-71
2022/02/24 11:40:39;;;;;;;2.58;1.50;;;11.80;99.90;;;;;;5067213;28;20083;-71
2022/02/24 11:43:23;;;;;;;3.60;1.27;;;11.90;99.90;;;;;;5064989;28;20132;-71
2022/02/24 11:45:57;;;;;;;4.05;1.67;;;12.00;99.90;;;;;;5063107;28;20049;-71
2022/02/24 11:48:33;;;;;;;4.47;1.70;;;12.10;99.90;;;;;;5046178;28;20076;-70
2022/02/24 11:51:05;;;;;;;1.38;1.08;;;12.10;99.90;;;;;;5049976;28;20037;-71
2022/02/24 11:53:39;;;;;;;4.43;1.50;;;12.20;99.90;;;;;;5054304;28;20041;-71
2022/02/24 11:56:19;;;;;;;4.28;1.75;;;12.30;99.90;;;;;;5046859;28;20579;-71
2022/02/24 11:59:00;;;;;;;2.67;1.30;;;12.30;99.90;;;;;;5051594;28;20048;-70
2022/02/24 12:01:44;;;;;;;3.40;1.60;;;12.40;99.90;;;;;;5051200;28;20120;-71
2022/02/24 12:04:31;;;;;;;4.05;1.38;;;12.40;99.90;;;;;;5062392;28;20048;-71
2022/02/24 12:07:15;;;;;;;3.53;1.35;;;12.40;99.90;;;;;;5068467;28;20045;-71
2022/02/24 12:10:11;;;;;;;1.92;1.02;;;12.40;99.90;;;;;;5084230;28;20127;-71
2022/02/24 12:12:38;;;;;;;3.03;1.10;;;12.50;99.90;;;;;;5071584;28;20052;-71
2022/02/24 12:15:18;;;;;;;3.17;1.27;;;12.50;99.90;;;;;;5070267;28;20067;-71
2022/02/24 12:17:51;;;;;;;1.52;0.90;;;12.50;98.50;;;;;;5058637;28;20083;-71
2022/02/24 12:20:26;;;;;;;1.95;1.10;;;12.50;99.90;;;;;;5050265;28;20091;-71
2022/02/24 12:22:57;;;;;;;2.33;0.80;;;12.50;99.30;;;;;;5048284;28;20033;-71
2022/02/24 12:25:29;;;;;;;2.65;1.20;;;12.50;97.90;;;;;;5041447;28;20064;-71
2022/02/24 12:28:08;;;;;;;2.20;0.98;;;12.50;97.20;;;;;;5047639;28;20045;-71
2022/02/24 12:30:38;;;;;;;2.63;1.20;;;12.60;98.20;;;;;;5049497;28;20076;-72
2022/02/24 12:33:05;;;;;;;2.55;0.90;;;12.60;97.90;;;;;;5048347;28;20482;-71
2022/02/24 12:35:41;;;;;;;3.85;1.27;;;12.70;96.70;;;;;;5032603;28;20033;-71
2022/02/24 12:38:20;;;;;;;2.33;1.10;;;12.90;96.60;;;;;;5047251;28;20140;-71
2022/02/24 12:40:54;;;;;;;4.32;1.38;;;13.00;96.70;;;;;;5050795;28;20511;-71
2022/02/24 12:43:27;;;;;;;4.95;1.42;;;13.00;94.90;;;;;;5049947;28;20514;-71
2022/02/24 12:45:58;;;;;;;2.73;1.30;;;12.90;95.30;;;;;;5033988;28;20060;-71
2022/02/24 12:48:35;;;;;;;3.65;1.73;;;12.90;95.10;;;;;;5047541;28;20047;-71
2022/02/24 12:51:10;;;;;;;3.83;1.38;;;12.80;94.90;;;;;;5044778;28;20405;-70
2022/02/24 12:53:41;;;;;;;2.15;1.10;;;12.80;93.90;;;;;;5048719;28;20073;-71
2022/02/24 12:56:21;;;;;;;2.83;1.42;;;12.70;93.80;;;;;;5043100;28;20041;-71
2022/02/24 12:58:54;;;;;;;3.53;1.40;;;12.70;95.20;;;;;;5048316;28;20037;-71
2022/02/24 13:01:27;;;;;;;2.65;1.05;;;12.70;93.50;;;;;;5041153;28;20407;-71
2022/02/24 13:03:55;;;;;;;2.85;1.13;;;12.90;93.40;;;;;;5047769;28;20045;-71
2022/02/24 13:06:35;;;;;;;2.63;1.30;;;13.00;93.30;;;;;;5043402;28;20053;-71
2022/02/24 13:12:08;;;;;;;3.72;1.23;;;12.90;89.50;;;;;;5045927;28;20124;-71
2022/02/24 13:14:49;;;;;;;2.78;1.20;;;12.70;89.50;;;;;;5049450;28;20041;-74
2022/02/24 13:17:29;;;;;;;3.67;1.40;;;12.60;90.10;;;;;;5049562;28;20123;-71
2022/02/24 13:19:57;;;;;;;1.88;1.05;;;12.60;89.00;;;;;;5048522;28;20041;-71
2022/02/24 13:22:29;;;;;;;3.60;1.15;;;12.60;90.40;;;;;;5048473;28;20099;-71